Chanute Martin Johnson Airport
KCNU : now visible

Airfield :











YOU CAN JOIN US ON...

 
LOGIN :

Register | Disclaimer

   EN    FR    IT 

 









Legend :    VFR   Marginal VFR   IFR   Intensive IFR   Very Intensive IFR
Visi :
Ceiling :
>= 8 km
>= 3000ft
5 to 8 km
1000 to 3000 ft
1500m to 5 km
500 to 1000 ft
800 to 1500m
200 to 500 ft
< 800m
< 200 ft
Symbols :   Thunderstorms  Fog  Heavy snow  Heavy precipitations  Wind > 20 kt






- Airport Elevation : 1002 ft


KCNU - Chanute Martin Johnson

CURRENT METAR :
  • 241852Z AUTO 01006KT 4SM BR OVC003 06/05 A2999 RMK AO2 SLP159 T00610050

EXPIRED METARs :
  • 241752Z AUTO 33005KT 4SM BR OVC002 06/05 A3002 RMK AO2 SLP169 T00610050 10061 20050 50016
  • 241652Z AUTO 01003KT 3SM BR OVC002 06/05 A3003 RMK AO2 SLP172 T00610050
  • 241638Z AUTO 00000KT 4SM BR OVC002 06/05 A3002 RMK AO2 T00560050

TAF KCNU
Valid from the 24 at 18:00 until the 25 at 18:00 UTC


241737Z 2418/2518 01006KT 4SM BR OVC003
FM242100 06006KT 4SM BR OVC003
FM250700 06012KT 2SM RA BR OVC005
FM251400 09014G22KT P6SM OVC004
KZKC FIR / North America



MET'MAP, your aeronautical weather chart ! - Copyright ORBIFLY December 2007 - Disclaimer

ORBIFLY MET'MAP TEAM :

Programming & Development : Alexandra Zaïnal
Concept & original design : Baudouin d'Aumeries
Assistance for programming : Marc-Olivier Méhu
Technical & hardware support : Manuel Goepfert

Contact : metmap@orbifly.com




SOURCES & CREDITS :

   NOAA       Earth
Advisory